»·PEaware :: N55NT KBZN-KPDX

N55NT :: KBZN-KPDX

FLIGHT INFORMATION

Flight Status: Arrived
Operator: Privately registered:
United States
More flights under this callsign
Pilot: Craig H. (6968)
Aircraft: SOCATA TBM-900
(TBM9)
More flights by this aircraft type
Origin: KBZN Gallatin
United States
Destination: KPDX Portland Intl
United States
More flights between these airports :: More routes between these airports
Route: TEERX4 HIA J16 PDT BAYYR HHOOD4
File this flight plan on PilotEdge
Remarks:
Altitude:
(Current/Filed)
26,000ft
Speed:
(Current/Filed)
315kts
Departed: 12-Oct-19 11:23 AM
Arrived: 12-Oct-19 01:15 PM
Distance/Time
Traveled:
479nm/1:52
Distance/Time
To Go:
Arrived

Flight Plot

Page will automatically refresh every two minutes.

Flight plan parsing failed; only flown route is shown


Map Options




Map Legend


Flown Route
Filed Route
Departure Airport
Arrival Airport
Navaid (VOR, NDB)
Fix

Horizontal Profiles

Position Reports

Time Latitude Longitude Heading Altitude Ground
Speed
12-Oct-19 11:07 45.772636 -111.152123 45 4463ft 0kts
12-Oct-19 11:07 45.772636 -111.152123 45 4463ft 0kts
12-Oct-19 11:08 45.772636 -111.152123 45 4463ft 0kts
12-Oct-19 11:09 45.772636 -111.152123 45 4463ft 0kts
12-Oct-19 11:10 45.772636 -111.152123 45 4463ft 0kts
12-Oct-19 11:11 45.772636 -111.152123 45 4463ft 0kts
12-Oct-19 11:12 45.772636 -111.152123 45 4463ft 0kts
12-Oct-19 11:13 45.772636 -111.152123 45 4463ft 0kts
12-Oct-19 11:14 45.772637 -111.152122 45 4463ft 0kts
12-Oct-19 11:15 45.772637 -111.152122 45 4463ft 0kts
12-Oct-19 11:16 45.772834 -111.151888 33 4463ft 7kts
12-Oct-19 11:17 45.776339 -111.154308 316 4456ft 20kts
12-Oct-19 11:18 45.780471 -111.160051 316 4448ft 20kts
12-Oct-19 11:19 45.784657 -111.165878 316 4437ft 21kts
12-Oct-19 11:20 45.787249 -111.167505 45 4430ft 3kts
12-Oct-19 11:21 45.787328 -111.167391 45 4430ft 3kts
12-Oct-19 11:22 45.778095 -111.152472 135 4744ft 124kts
12-Oct-19 11:23 45.746379 -111.149152 235 6696ft 157kts
12-Oct-19 11:27 45.715883 -111.367083 281 15485ft 162kts
12-Oct-19 11:28 45.724042 -111.439248 281 16897ft 186kts
12-Oct-19 11:29 45.731627 -111.506705 281 19229ft 174kts
12-Oct-19 11:30 45.739421 -111.576377 282 21249ft 182kts
12-Oct-19 11:31 45.747480 -111.648668 284 23152ft 192kts
12-Oct-19 11:32 45.766789 -111.736054 289 23184ft 258kts
12-Oct-19 11:33 45.789671 -111.839672 289 23165ft 281kts
12-Oct-19 11:34 45.813360 -111.947512 289 23159ft 285kts
12-Oct-19 11:35 45.837183 -112.056475 288 23157ft 286kts
12-Oct-19 11:36 45.860822 -112.165740 286 23156ft 287kts
12-Oct-19 11:37 45.862264 -112.270031 274 25357ft 229kts
12-Oct-19 11:38 45.862712 -112.362695 274 26184ft 255kts
12-Oct-19 11:39 45.863066 -112.470977 273 26168ft 282kts
12-Oct-19 11:40 45.863320 -112.585660 273 26164ft 291kts
12-Oct-19 11:41 45.863487 -112.703177 272 26164ft 296kts
12-Oct-19 11:42 45.863519 -112.821485 272 26165ft 298kts
12-Oct-19 11:43 45.863430 -112.940597 271 26164ft 298kts
12-Oct-19 11:44 45.863222 -113.059791 271 26167ft 299kts
12-Oct-19 11:45 45.862887 -113.179503 271 26168ft 299kts
12-Oct-19 11:46 45.862430 -113.299107 271 26168ft 300kts
12-Oct-19 11:47 45.861845 -113.418659 271 26167ft 300kts
12-Oct-19 11:48 45.861134 -113.538415 270 26165ft 300kts
12-Oct-19 11:49 45.860295 -113.657665 270 26164ft 300kts
12-Oct-19 11:50 45.859329 -113.777893 270 26164ft 300kts
12-Oct-19 11:51 45.858240 -113.897829 270 26164ft 300kts
12-Oct-19 11:52 45.857030 -114.017555 269 26160ft 300kts
12-Oct-19 11:53 45.855692 -114.137668 269 26160ft 300kts
12-Oct-19 11:54 45.854229 -114.257480 269 26160ft 300kts
12-Oct-19 11:55 45.852644 -114.377402 269 26162ft 300kts
12-Oct-19 11:56 45.850921 -114.497637 269 26164ft 301kts
12-Oct-19 11:57 45.849080 -114.617608 269 26167ft 301kts
12-Oct-19 11:58 45.847107 -114.738164 268 26171ft 302kts
12-Oct-19 11:59 45.844995 -114.859290 268 26171ft 303kts
12-Oct-19 12:00 45.842758 -114.980130 268 26172ft 303kts
12-Oct-19 12:01 45.840392 -115.101089 268 26175ft 303kts
12-Oct-19 12:02 45.837886 -115.222360 268 26155ft 304kts
12-Oct-19 12:03 45.835246 -115.343556 268 26137ft 304kts
12-Oct-19 12:04 45.832474 -115.464975 268 26136ft 304kts
12-Oct-19 12:05 45.829579 -115.586093 268 26134ft 304kts
12-Oct-19 12:06 45.826541 -115.707907 267 26128ft 304kts
12-Oct-19 12:07 45.823385 -115.829304 267 26126ft 304kts
12-Oct-19 12:08 45.820102 -115.950465 267 26122ft 304kts
12-Oct-19 12:09 45.816689 -116.071838 267 26120ft 304kts
12-Oct-19 12:10 45.813154 -116.192822 267 26119ft 304kts
12-Oct-19 12:11 45.809475 -116.314392 267 26118ft 304kts
12-Oct-19 12:12 45.805682 -116.435545 267 26118ft 304kts
12-Oct-19 12:13 45.801752 -116.556815 267 26118ft 304kts
12-Oct-19 12:14 45.797682 -116.678537 266 26119ft 304kts
12-Oct-19 12:15 45.793512 -116.799473 266 26119ft 304kts
12-Oct-19 12:16 45.789245 -116.919524 266 26119ft 304kts
12-Oct-19 12:17 45.784780 -117.041408 266 26119ft 304kts
12-Oct-19 12:18 45.780226 -117.162347 265 26119ft 304kts
12-Oct-19 12:19 45.775549 -117.282932 265 26116ft 303kts
12-Oct-19 12:20 45.770738 -117.403781 265 26116ft 303kts
12-Oct-19 12:21 45.765811 -117.524268 265 26115ft 303kts
12-Oct-19 12:22 45.760776 -117.644331 265 26115ft 303kts
12-Oct-19 12:23 45.755589 -117.765078 264 26117ft 302kts
12-Oct-19 12:24 45.750298 -117.885046 264 26118ft 302kts
12-Oct-19 12:25 45.744872 -118.005317 264 26117ft 302kts
12-Oct-19 12:26 45.739309 -118.125781 264 26104ft 302kts
12-Oct-19 12:27 45.733648 -118.245623 264 26102ft 302kts
12-Oct-19 12:28 45.727846 -118.365743 264 26101ft 302kts
12-Oct-19 12:29 45.721907 -118.485987 264 26099ft 302kts
12-Oct-19 12:30 45.715849 -118.606222 264 26100ft 302kts
12-Oct-19 12:31 45.709712 -118.725474 263 26103ft 303kts
12-Oct-19 12:32 45.703395 -118.845776 263 26101ft 303kts
12-Oct-19 12:33 45.696853 -118.965719 263 26103ft 303kts
12-Oct-19 12:34 45.689819 -119.085678 263 26111ft 303kts
12-Oct-19 12:35 45.682656 -119.205634 263 26118ft 302kts
12-Oct-19 12:36 45.675363 -119.325639 262 26126ft 302kts
12-Oct-19 12:37 45.667941 -119.445634 262 26125ft 302kts
12-Oct-19 12:38 45.660386 -119.565669 262 26124ft 302kts
12-Oct-19 12:39 45.652709 -119.685642 261 26127ft 302kts
12-Oct-19 12:40 45.644949 -119.805072 261 26127ft 303kts
12-Oct-19 12:41 45.637001 -119.925211 261 26126ft 302kts
12-Oct-19 12:42 45.628966 -120.044813 261 26126ft 302kts
12-Oct-19 12:43 45.620808 -120.164414 261 26126ft 302kts
12-Oct-19 12:44 45.612508 -120.284152 261 26125ft 302kts
12-Oct-19 12:45 45.604216 -120.402141 261 26117ft 287kts
12-Oct-19 12:46 45.595642 -120.521771 261 24012ft 318kts
12-Oct-19 12:47 45.586482 -120.648305 262 22063ft 317kts
12-Oct-19 12:48 45.577395 -120.771687 261 20742ft 306kts
12-Oct-19 12:49 45.568550 -120.890169 261 19524ft 298kts
12-Oct-19 12:50 45.559469 -121.009988 261 17946ft 306kts
12-Oct-19 12:51 45.550150 -121.131206 261 16405ft 306kts
12-Oct-19 12:52 45.540900 -121.250008 261 14964ft 293kts
12-Oct-19 12:53 45.531902 -121.363884 261 13554ft 287kts
12-Oct-19 12:55 45.529008 -121.474341 268 13053ft 266kts
12-Oct-19 12:56 45.529275 -121.579072 268 13051ft 264kts
12-Oct-19 12:57 45.529447 -121.684355 267 13046ft 266kts
12-Oct-19 12:58 45.532225 -121.790066 270 13041ft 266kts
12-Oct-19 12:59 45.536001 -121.895845 270 13034ft 266kts
12-Oct-19 13:00 45.547044 -122.000336 284 13030ft 269kts
12-Oct-19 13:01 45.568813 -122.104001 283 12528ft 282kts
12-Oct-19 13:02 45.591209 -122.211724 284 11535ft 283kts
12-Oct-19 13:03 45.613301 -122.318530 284 10776ft 279kts
12-Oct-19 13:04 45.635064 -122.424404 285 8950ft 259kts
12-Oct-19 13:05 45.661074 -122.513374 297 7530ft 244kts
12-Oct-19 13:06 45.692298 -122.600400 297 5058ft 246kts
12-Oct-19 13:07 45.723028 -122.685240 297 4263ft 232kts
12-Oct-19 13:08 45.732895 -122.761217 215 2665ft 205kts
12-Oct-19 13:09 45.683149 -122.757114 144 2007ft 205kts
12-Oct-19 13:10 45.641520 -122.707549 133 1868ft 129kts
12-Oct-19 13:11 45.625504 -122.674412 118 1352ft 91kts
12-Oct-19 13:11 45.615064 -122.647557 119 881ft 92kts
12-Oct-19 13:13 45.600926 -122.611236 118 275ft 86kts
12-Oct-19 13:14 45.590682 -122.585060 119 25ft 47kts
12-Oct-19 13:14 45.586985 -122.581172 118 25ft 18kts
12-Oct-19 13:15 45.585193 -122.578519 273 25ft 4kts
12-Oct-19 13:17 45.585289 -122.578815 296 25ft 0kts
12-Oct-19 13:17 45.585289 -122.578814 296 25ft 0kts

Navigation Log

Ident Type
Flight plan parsing failed, navigation log unavailable